createdAt,value
2019-01-29T00:01:27.562Z,76.69
2019-01-29T00:03:01.312Z,76.62
2019-01-29T00:04:34.150Z,76.48
2019-01-29T00:06:08.915Z,75.85
2019-01-29T00:07:42.193Z,75.99
2019-01-29T00:09:16.004Z,76.11
2019-01-29T00:10:49.874Z,76.65
2019-01-29T00:12:23.808Z,76.37
2019-01-29T00:13:56.890Z,76.48
2019-01-29T00:15:30.791Z,76.37
2019-01-29T00:17:04.875Z,76.05
2019-01-29T00:18:38.785Z,76.29
2019-01-29T00:20:12.694Z,76.32
2019-01-29T00:21:45.586Z,76.35
2019-01-29T00:23:19.458Z,76.30
2019-01-29T00:24:53.280Z,76.15
2019-01-29T00:26:27.264Z,76.59
2019-01-29T00:28:01.291Z,76.51
2019-01-29T00:29:35.195Z,76.38
2019-01-29T00:31:09.054Z,76.23
2019-01-29T00:32:43.040Z,76.08
2019-01-29T00:34:16.711Z,75.96
2019-01-29T00:35:49.856Z,75.98
2019-01-29T00:37:23.784Z,76.02
2019-01-29T00:38:57.792Z,76.33
2019-01-29T00:40:32.817Z,75.99
2019-01-29T00:42:06.921Z,75.87
2019-01-29T00:43:41.157Z,75.98
2019-01-29T00:45:15.550Z,75.97
2019-01-29T00:46:49.840Z,76.03
2019-01-29T00:48:23.796Z,76.21
2019-01-29T00:49:58.178Z,75.78
2019-01-29T00:51:32.050Z,76.10
2019-01-29T00:53:06.294Z,75.83
2019-01-29T00:54:40.394Z,76.06
2019-01-29T00:56:14.406Z,76.07
2019-01-29T00:57:48.195Z,75.68
2019-01-29T00:59:22.495Z,75.97
2019-01-29T01:00:56.309Z,75.82
2019-01-29T01:02:29.288Z,75.79
2019-01-29T01:04:03.396Z,75.68
2019-01-29T01:05:37.284Z,75.74
2019-01-29T01:07:11.408Z,75.96
2019-01-29T01:08:45.718Z,75.88
2019-01-29T01:10:20.751Z,76.15
2019-01-29T01:11:54.902Z,75.98
2019-01-29T01:13:29.025Z,75.91
2019-01-29T01:15:04.167Z,75.65
2019-01-29T01:16:38.336Z,75.86
2019-01-29T01:18:12.101Z,75.62
2019-01-29T01:19:46.057Z,75.84
2019-01-29T01:21:19.964Z,75.83
2019-01-29T01:22:54.039Z,75.89
2019-01-29T01:24:28.016Z,75.94
2019-01-29T01:26:02.023Z,75.89
2019-01-29T01:27:36.143Z,75.41
2019-01-29T01:29:09.190Z,75.86
2019-01-29T01:30:44.035Z,75.58
2019-01-29T01:32:18.014Z,75.45
2019-01-29T01:33:52.044Z,75.67
2019-01-29T01:35:26.053Z,75.61
2019-01-29T01:36:59.952Z,75.76
2019-01-29T01:38:33.649Z,75.72
2019-01-29T01:40:07.427Z,75.62
2019-01-29T01:41:41.323Z,75.57
2019-01-29T01:43:15.436Z,75.76
2019-01-29T01:44:49.214Z,75.57
2019-01-29T01:46:23.367Z,75.43
2019-01-29T01:47:57.194Z,75.90
2019-01-29T01:49:31.343Z,75.55
2019-01-29T01:51:05.148Z,75.30
2019-01-29T01:52:38.152Z,75.78
2019-01-29T01:54:12.126Z,75.88
2019-01-29T01:55:46.324Z,75.65
2019-01-29T01:57:21.400Z,75.84
2019-01-29T01:58:55.316Z,75.53
2019-01-29T02:00:32.367Z,75.52
2019-01-29T02:03:08.309Z,75.69
2019-01-29T02:04:42.542Z,75.31
2019-01-29T02:06:16.523Z,75.28
2019-01-29T02:07:50.633Z,75.33
2019-01-29T02:09:24.433Z,75.22
2019-01-29T02:10:59.390Z,75.81
2019-01-29T02:12:33.688Z,75.69
2019-01-29T02:14:07.802Z,75.34
2019-01-29T02:15:41.799Z,75.70
2019-01-29T02:17:15.809Z,75.67
2019-01-29T02:18:49.915Z,75.47
2019-01-29T02:20:24.776Z,75.25
2019-01-29T02:21:58.693Z,75.31
2019-01-29T02:23:32.730Z,75.31
2019-01-29T02:25:06.573Z,75.64
2019-01-29T02:26:40.593Z,75.25
2019-01-29T02:28:14.737Z,75.52
2019-01-29T02:29:48.827Z,75.63
2019-01-29T02:31:22.840Z,75.38
2019-01-29T02:32:56.634Z,75.65
2019-01-29T02:34:30.682Z,75.41
2019-01-29T02:36:04.761Z,75.43
2019-01-29T02:37:38.399Z,75.26
2019-01-29T02:39:12.372Z,75.07
2019-01-29T02:40:47.515Z,75.29
2019-01-29T02:42:21.444Z,75.27
2019-01-29T02:43:55.531Z,75.46
2019-01-29T02:45:31.473Z,75.46
2019-01-29T02:47:05.273Z,75.07
2019-01-29T02:48:39.260Z,75.20
2019-01-29T02:50:13.177Z,74.81
2019-01-29T02:51:47.142Z,75.00
2019-01-29T02:53:20.968Z,75.22
2019-01-29T02:54:54.854Z,75.12
2019-01-29T02:56:28.790Z,75.08
2019-01-29T02:58:03.401Z,74.90
2019-01-29T02:59:37.431Z,75.00
2019-01-29T03:01:11.500Z,75.24
2019-01-29T03:02:45.803Z,75.22
2019-01-29T03:04:19.593Z,75.13
2019-01-29T03:05:53.838Z,74.80
2019-01-29T03:07:28.742Z,74.89
2019-01-29T03:09:02.651Z,75.28
2019-01-29T03:10:38.895Z,75.16
2019-01-29T03:12:13.243Z,74.86
2019-01-29T03:13:47.160Z,75.31
2019-01-29T03:15:22.152Z,75.03
2019-01-29T03:16:56.279Z,74.83
2019-01-29T03:18:30.284Z,75.20
2019-01-29T03:20:04.091Z,75.14
2019-01-29T03:21:38.005Z,75.20
2019-01-29T03:23:12.152Z,74.94
2019-01-29T03:24:46.266Z,75.31
2019-01-29T03:26:20.307Z,74.83
2019-01-29T03:27:54.383Z,75.09
2019-01-29T03:29:28.174Z,74.96
2019-01-29T03:31:02.187Z,74.84
2019-01-29T03:32:36.027Z,75.02
2019-01-29T03:34:10.203Z,74.81
2019-01-29T03:35:44.137Z,74.89
2019-01-29T03:37:18.106Z,74.67
2019-01-29T03:38:52.036Z,74.95
2019-01-29T03:40:27.035Z,75.18
2019-01-29T03:42:01.080Z,74.30
2019-01-29T03:43:36.062Z,75.27
2019-01-29T03:45:10.173Z,75.07
2019-01-29T03:46:44.053Z,75.24
2019-01-29T03:48:18.007Z,74.87
2019-01-29T03:49:52.532Z,75.21
2019-01-29T03:51:26.399Z,75.21
2019-01-29T03:53:00.348Z,74.98
2019-01-29T03:54:34.336Z,75.31
2019-01-29T03:56:08.443Z,75.01
2019-01-29T03:57:42.420Z,75.06
2019-01-29T03:59:16.326Z,75.31
2019-01-29T04:00:51.277Z,74.83
2019-01-29T04:02:25.159Z,75.31
2019-01-29T04:03:59.453Z,75.19
2019-01-29T04:05:33.438Z,75.15
2019-01-29T04:07:07.575Z,74.90
2019-01-29T04:08:41.472Z,74.92
2019-01-29T04:10:16.046Z,74.86
2019-01-29T04:11:49.205Z,74.89
2019-01-29T04:13:23.119Z,75.26
2019-01-29T04:14:57.332Z,75.50
2019-01-29T04:16:31.197Z,74.97
2019-01-29T04:18:05.326Z,74.89
2019-01-29T04:19:40.162Z,74.76
2019-01-29T04:21:14.356Z,75.38
2019-01-29T04:22:48.345Z,74.95
2019-01-29T04:24:22.280Z,74.82
2019-01-29T04:25:57.458Z,74.64
2019-01-29T04:27:31.385Z,74.88
2019-01-29T04:29:05.288Z,74.76
2019-01-29T04:30:40.521Z,74.81
2019-01-29T04:32:15.206Z,75.21
2019-01-29T04:33:49.299Z,74.94
2019-01-29T04:35:23.479Z,74.69
2019-01-29T04:36:57.380Z,74.67
2019-01-29T04:38:31.261Z,74.74
2019-01-29T04:40:04.236Z,75.02
2019-01-29T04:41:38.344Z,74.26
2019-01-29T04:43:13.335Z,74.49
2019-01-29T04:44:47.195Z,75.00
2019-01-29T04:46:21.103Z,75.06
2019-01-29T04:47:55.307Z,74.72
2019-01-29T04:49:30.031Z,74.86
2019-01-29T04:51:04.336Z,74.72
2019-01-29T04:52:38.389Z,74.59
2019-01-29T04:54:12.419Z,74.64
2019-01-29T04:55:46.432Z,74.54
2019-01-29T04:57:21.360Z,74.58
2019-01-29T04:58:55.262Z,74.65
2019-01-29T05:00:32.224Z,74.90
2019-01-29T05:02:06.467Z,74.75
2019-01-29T05:03:40.371Z,74.85
2019-01-29T05:05:14.456Z,74.90
2019-01-29T05:06:49.763Z,74.56
2019-01-29T05:08:22.689Z,75.00
2019-01-29T05:09:56.653Z,74.78
2019-01-29T05:11:30.496Z,74.45
2019-01-29T05:13:04.311Z,74.71
2019-01-29T05:14:38.485Z,74.74
2019-01-29T05:16:12.175Z,74.93
2019-01-29T05:17:46.103Z,74.37
2019-01-29T05:19:19.759Z,74.61
2019-01-29T05:20:53.703Z,74.27
2019-01-29T05:22:27.468Z,74.44
2019-01-29T05:24:07.022Z,74.46
2019-01-29T05:25:35.888Z,74.63
2019-01-29T05:27:10.156Z,74.40
2019-01-29T05:28:43.801Z,73.97
2019-01-29T05:30:20.486Z,74.59
2019-01-29T05:31:51.804Z,73.86
2019-01-29T05:33:26.839Z,74.60
2019-01-29T05:35:01.086Z,74.52
2019-01-29T05:36:35.052Z,74.39
2019-01-29T05:38:08.936Z,74.35
2019-01-29T05:39:42.980Z,74.88
2019-01-29T05:41:16.961Z,74.90
2019-01-29T05:42:50.861Z,74.76
2019-01-29T05:44:25.079Z,74.51
2019-01-29T05:45:58.813Z,74.69
2019-01-29T05:47:32.613Z,74.99
2019-01-29T05:49:06.708Z,74.59
2019-01-29T05:50:40.564Z,74.49
2019-01-29T05:52:14.724Z,74.53
2019-01-29T05:53:48.924Z,74.50
2019-01-29T05:55:22.622Z,74.80
2019-01-29T05:56:55.808Z,74.69
2019-01-29T05:58:29.789Z,74.92
2019-01-29T06:00:03.817Z,74.64
2019-01-29T06:01:37.923Z,74.81
2019-01-29T06:03:12.012Z,74.95
2019-01-29T06:04:46.036Z,74.76
2019-01-29T06:06:19.809Z,74.67
2019-01-29T06:07:53.842Z,74.88
2019-01-29T06:09:27.849Z,74.14
2019-01-29T06:11:01.856Z,74.67
2019-01-29T06:12:37.469Z,74.18
2019-01-29T06:14:11.496Z,74.46
2019-01-29T06:15:44.235Z,74.74
2019-01-29T06:17:27.178Z,74.75
2019-01-29T06:18:52.659Z,73.45
2019-01-29T06:20:27.332Z,74.15
2019-01-29T06:22:01.363Z,74.23
2019-01-29T06:23:36.255Z,74.42
2019-01-29T06:25:10.359Z,74.47
2019-01-29T06:26:44.430Z,74.51
2019-01-29T06:28:18.132Z,74.57
2019-01-29T06:29:52.239Z,74.50
2019-01-29T06:31:26.239Z,74.43
2019-01-29T06:33:00.050Z,74.87
2019-01-29T06:34:35.095Z,74.32
2019-01-29T06:36:09.002Z,74.53
2019-01-29T06:37:42.802Z,74.39
2019-01-29T06:39:16.799Z,74.89
2019-01-29T06:40:51.929Z,74.54
2019-01-29T06:42:25.937Z,74.58
2019-01-29T06:44:00.043Z,74.87
2019-01-29T06:45:36.767Z,74.89
2019-01-29T06:47:09.898Z,74.88
2019-01-29T06:48:43.951Z,74.62
2019-01-29T06:50:18.004Z,74.69
2019-01-29T06:51:52.082Z,74.09
2019-01-29T06:53:25.918Z,74.39
2019-01-29T06:55:00.290Z,74.39
2019-01-29T06:56:34.538Z,74.30
2019-01-29T06:58:08.206Z,74.76
2019-01-29T06:59:41.326Z,74.77
2019-01-29T07:01:15.220Z,74.39
2019-01-29T07:02:50.102Z,74.36
2019-01-29T07:04:23.952Z,74.40
2019-01-29T07:05:58.254Z,74.65
2019-01-29T07:07:32.034Z,74.38
2019-01-29T07:09:06.164Z,74.54
2019-01-29T07:10:41.149Z,74.64
2019-01-29T07:12:20.354Z,74.06
2019-01-29T07:13:54.235Z,74.48
2019-01-29T07:17:39.231Z,74.05
2019-01-29T07:19:43.289Z,73.89
2019-01-29T07:21:18.207Z,73.57
2019-01-29T07:22:52.159Z,74.33
2019-01-29T07:24:26.346Z,74.74
2019-01-29T07:26:00.124Z,73.85
2019-01-29T07:27:34.152Z,74.06
2019-01-29T07:29:08.052Z,74.38
2019-01-29T07:30:42.465Z,73.54
2019-01-29T07:32:16.279Z,74.82
2019-01-29T07:33:50.363Z,74.74
2019-01-29T07:35:26.015Z,75.00
2019-01-29T07:37:00.231Z,74.31
2019-01-29T07:38:34.018Z,74.77
2019-01-29T07:40:07.956Z,74.08
2019-01-29T07:41:41.801Z,74.23
2019-01-29T07:43:15.702Z,73.60
2019-01-29T07:44:49.326Z,74.26
2019-01-29T07:46:23.863Z,74.62
2019-01-29T07:47:56.243Z,74.41
2019-01-29T07:49:30.588Z,74.50
2019-01-29T07:51:04.791Z,74.34
2019-01-29T07:52:38.933Z,74.58
2019-01-29T07:54:13.127Z,74.56
2019-01-29T07:55:46.950Z,74.44
2019-01-29T07:57:21.800Z,74.52
2019-01-29T07:58:55.952Z,74.44
2019-01-29T08:00:30.831Z,74.60
2019-01-29T08:02:04.880Z,74.38
2019-01-29T08:03:38.652Z,74.46
2019-01-29T08:05:12.512Z,74.75
2019-01-29T08:06:46.496Z,74.33
2019-01-29T08:08:20.456Z,74.74
2019-01-29T08:09:54.858Z,74.45
2019-01-29T08:11:29.061Z,74.95
2019-01-29T08:13:03.139Z,74.54
2019-01-29T08:14:37.166Z,74.46
2019-01-29T08:16:10.801Z,74.43
2019-01-29T08:17:44.835Z,74.34
2019-01-29T08:19:18.965Z,74.57
2019-01-29T08:20:52.870Z,74.54
2019-01-29T08:22:26.646Z,74.44
2019-01-29T08:24:00.736Z,74.71
2019-01-29T08:25:35.473Z,74.91
2019-01-29T08:27:09.279Z,74.71
2019-01-29T08:28:43.473Z,74.05
2019-01-29T08:30:17.507Z,73.63
2019-01-29T08:31:50.145Z,74.17
2019-01-29T08:33:24.062Z,73.50
2019-01-29T08:34:57.888Z,74.13
2019-01-29T08:36:31.954Z,74.76
2019-01-29T08:38:05.769Z,74.57
2019-01-29T08:39:39.626Z,74.53
2019-01-29T08:41:13.430Z,74.40
2019-01-29T08:42:47.229Z,74.90
2019-01-29T08:44:22.221Z,74.60
2019-01-29T08:45:56.903Z,74.34
2019-01-29T08:47:30.927Z,74.94
2019-01-29T08:49:05.666Z,74.92
2019-01-29T08:50:43.461Z,75.07
2019-01-29T08:52:17.309Z,74.66
2019-01-29T08:53:51.266Z,74.75
2019-01-29T08:55:24.322Z,74.65
2019-01-29T08:56:57.841Z,74.61
2019-01-29T08:58:31.667Z,74.42
2019-01-29T09:00:06.002Z,73.78
2019-01-29T09:01:40.095Z,74.29
2019-01-29T09:03:14.375Z,74.28
2019-01-29T09:04:48.176Z,73.86
2019-01-29T09:06:22.290Z,73.79
2019-01-29T09:07:56.018Z,74.11
2019-01-29T09:09:32.051Z,74.64
2019-01-29T09:11:04.883Z,74.24
2019-01-29T09:12:38.655Z,75.01
2019-01-29T09:14:12.713Z,74.94
2019-01-29T09:15:47.228Z,74.74
2019-01-29T09:17:21.413Z,74.42
2019-01-29T09:18:55.534Z,74.53
2019-01-29T09:20:31.698Z,74.39
2019-01-29T09:22:05.892Z,75.01
2019-01-29T09:23:39.834Z,74.88
2019-01-29T09:25:19.538Z,74.81
2019-01-29T09:26:48.303Z,74.44
2019-01-29T09:28:22.267Z,74.53
2019-01-29T09:29:56.421Z,74.88
2019-01-29T09:31:30.322Z,74.37
2019-01-29T09:33:04.116Z,74.07
2019-01-29T09:34:37.106Z,74.57
2019-01-29T09:36:11.236Z,74.89
2019-01-29T09:37:45.052Z,73.82
2019-01-29T09:39:19.198Z,74.17
2019-01-29T09:40:53.145Z,74.48
2019-01-29T09:42:26.917Z,74.27
2019-01-29T09:44:00.967Z,74.40
2019-01-29T09:45:36.085Z,73.60
2019-01-29T09:47:10.133Z,73.04
2019-01-29T09:48:44.090Z,73.54
2019-01-29T09:50:18.081Z,72.01
2019-01-29T09:51:51.862Z,73.65
2019-01-29T09:53:25.855Z,73.13
2019-01-29T09:54:59.671Z,73.30
2019-01-29T09:56:33.695Z,72.12
2019-01-29T09:58:08.487Z,73.77
2019-01-29T09:59:42.199Z,73.78
2019-01-29T10:01:16.229Z,73.79
2019-01-29T10:02:50.335Z,73.59
2019-01-29T10:04:24.234Z,73.74
2019-01-29T10:05:58.344Z,73.60
2019-01-29T10:07:32.313Z,74.26
2019-01-29T10:09:06.147Z,74.19
2019-01-29T10:10:40.126Z,74.33
2019-01-29T10:12:14.227Z,74.15
2019-01-29T10:13:48.164Z,73.87
2019-01-29T10:15:23.488Z,73.40
2019-01-29T10:16:57.806Z,72.82
2019-01-29T10:18:32.564Z,73.45
2019-01-29T10:20:06.658Z,74.06
2019-01-29T10:21:40.719Z,74.28
2019-01-29T10:23:14.591Z,72.44
2019-01-29T10:24:49.059Z,73.76
2019-01-29T10:26:23.271Z,74.36
2019-01-29T10:27:58.420Z,74.19
2019-01-29T10:29:32.688Z,74.19
2019-01-29T10:31:06.822Z,74.20
2019-01-29T10:32:40.827Z,74.22
2019-01-29T10:34:14.710Z,73.53
2019-01-29T10:35:48.832Z,74.30
2019-01-29T10:37:22.940Z,73.92
2019-01-29T10:38:58.151Z,73.89
2019-01-29T10:40:34.049Z,74.05
2019-01-29T10:42:08.131Z,74.24
2019-01-29T10:43:42.422Z,73.19
2019-01-29T10:45:16.444Z,73.85
2019-01-29T10:46:51.249Z,74.03
2019-01-29T10:48:25.191Z,74.01
2019-01-29T10:49:59.079Z,73.79
2019-01-29T10:51:33.031Z,72.85
2019-01-29T10:53:06.976Z,73.96
2019-01-29T10:54:41.151Z,73.52
2019-01-29T10:56:15.182Z,73.76
2019-01-29T10:57:49.076Z,73.87
2019-01-29T10:59:23.203Z,73.38
2019-01-29T11:00:59.158Z,71.79
2019-01-29T11:02:33.119Z,73.27
2019-01-29T11:04:07.234Z,73.13
2019-01-29T11:05:41.696Z,73.71
2019-01-29T11:07:15.577Z,72.73
2019-01-29T11:08:49.382Z,73.54
2019-01-29T11:10:24.306Z,73.74
2019-01-29T11:11:58.328Z,73.34
2019-01-29T11:13:32.091Z,73.49
2019-01-29T11:15:05.072Z,72.96
2019-01-29T11:16:38.897Z,72.89
2019-01-29T11:18:12.793Z,72.92
2019-01-29T11:19:47.436Z,73.35
2019-01-29T11:21:21.352Z,71.13
2019-01-29T11:22:56.448Z,73.62
2019-01-29T11:24:30.306Z,72.79
2019-01-29T11:26:03.493Z,73.09
2019-01-29T11:27:37.413Z,72.65
2019-01-29T11:29:11.451Z,73.42
2019-01-29T11:30:48.307Z,73.49
2019-01-29T11:32:22.331Z,73.83
2019-01-29T11:33:56.433Z,72.94
2019-01-29T11:35:30.296Z,73.62
2019-01-29T11:37:04.194Z,73.54
2019-01-29T11:38:37.264Z,73.16
2019-01-29T11:40:12.544Z,72.01
2019-01-29T11:41:45.508Z,73.71
2019-01-29T11:43:19.515Z,72.65
2019-01-29T11:44:53.640Z,73.45
2019-01-29T11:46:27.341Z,72.45
2019-01-29T11:48:01.520Z,73.38
2019-01-29T11:49:35.573Z,73.50
2019-01-29T11:51:09.586Z,74.03
2019-01-29T11:52:43.764Z,73.64
2019-01-29T11:54:17.743Z,73.08
2019-01-29T11:55:51.873Z,73.43
2019-01-29T11:57:25.832Z,73.47
2019-01-29T11:58:59.781Z,72.92
2019-01-29T12:00:42.955Z,72.90
2019-01-29T12:02:16.672Z,72.94
2019-01-29T12:03:50.810Z,72.80
2019-01-29T12:05:25.839Z,72.93
2019-01-29T12:06:59.635Z,70.38
2019-01-29T12:08:33.639Z,71.96
2019-01-29T12:10:07.423Z,72.66
2019-01-29T12:11:41.319Z,73.02
2019-01-29T12:13:15.143Z,70.69
2019-01-29T12:14:49.148Z,71.54
2019-01-29T12:16:22.972Z,71.32
2019-01-29T12:17:57.131Z,72.64
2019-01-29T12:19:31.036Z,69.62
2019-01-29T12:21:04.142Z,71.74
2019-01-29T12:22:38.955Z,71.06
2019-01-29T12:24:12.765Z,70.46
2019-01-29T12:25:46.500Z,71.67
2019-01-29T12:27:20.484Z,72.48
2019-01-29T12:28:54.676Z,72.86
2019-01-29T12:30:33.185Z,73.21
2019-01-29T12:32:07.125Z,72.78
2019-01-29T12:33:40.920Z,72.61
2019-01-29T12:35:14.764Z,72.60
2019-01-29T12:36:47.902Z,72.88
2019-01-29T12:38:20.999Z,72.88
2019-01-29T12:39:55.166Z,71.78
2019-01-29T12:41:29.556Z,70.66
2019-01-29T12:43:03.694Z,72.53
2019-01-29T12:44:37.494Z,72.25
2019-01-29T12:46:11.580Z,71.92
2019-01-29T12:47:45.327Z,72.42
2019-01-29T12:49:19.366Z,72.49
2019-01-29T12:50:57.147Z,71.82
2019-01-29T12:53:07.657Z,71.75
2019-01-29T12:54:41.437Z,72.42
2019-01-29T12:56:21.405Z,71.68
2019-01-29T12:57:49.382Z,71.88
2019-01-29T12:59:23.350Z,70.98
2019-01-29T13:00:59.166Z,70.74
2019-01-29T13:02:33.128Z,72.21
2019-01-29T13:04:07.136Z,72.84
2019-01-29T13:05:41.048Z,73.28
2019-01-29T13:07:15.025Z,72.52
2019-01-29T13:08:48.829Z,72.96
2019-01-29T13:10:24.981Z,72.60
2019-01-29T13:11:59.116Z,72.58
2019-01-29T13:13:32.986Z,73.31
2019-01-29T13:15:06.992Z,73.09
2019-01-29T13:16:40.864Z,73.15
2019-01-29T13:18:14.819Z,73.08
2019-01-29T13:19:48.982Z,71.95
2019-01-29T13:21:23.019Z,71.90
2019-01-29T13:22:55.900Z,72.96
2019-01-29T13:24:29.977Z,71.72
2019-01-29T13:26:03.847Z,72.45
2019-01-29T13:52:51.664Z,73.61
2019-01-29T13:54:25.723Z,73.56
2019-01-29T13:55:59.693Z,73.51
2019-01-29T13:59:29.855Z,73.62
2019-01-29T14:01:03.022Z,72.10
2019-01-29T14:02:37.014Z,73.52
2019-01-29T14:04:10.069Z,72.99
2019-01-29T14:05:43.955Z,73.71
2019-01-29T14:07:18.002Z,72.74
2019-01-29T14:08:53.645Z,73.54
2019-01-29T14:10:26.956Z,73.49
2019-01-29T14:12:01.020Z,73.66
2019-01-29T14:13:35.086Z,73.55
2019-01-29T14:15:09.040Z,72.96
2019-01-29T14:16:43.279Z,73.24
2019-01-29T14:18:17.147Z,73.12
2019-01-29T14:19:51.038Z,72.33
2019-01-29T14:21:25.043Z,72.83
2019-01-29T14:22:58.185Z,72.53
2019-01-29T14:24:31.970Z,72.90
2019-01-29T14:26:06.550Z,73.02
2019-01-29T14:27:40.326Z,72.65
2019-01-29T14:29:14.461Z,73.12
2019-01-29T14:30:48.502Z,72.79
2019-01-29T14:32:23.385Z,70.97
2019-01-29T14:33:58.189Z,71.76
2019-01-29T14:35:31.019Z,72.56
2019-01-29T14:37:05.406Z,72.80
2019-01-29T14:38:55.372Z,72.92
2019-01-29T14:40:36.464Z,73.00
2019-01-29T14:42:10.288Z,72.89
2019-01-29T14:43:46.115Z,73.13
2019-01-29T14:45:24.233Z,73.29
2019-01-29T14:46:57.127Z,73.50
2019-01-29T14:48:30.995Z,72.81
2019-01-29T14:50:04.790Z,72.83
2019-01-29T14:51:38.928Z,72.79
2019-01-29T14:53:12.646Z,72.54
2019-01-29T14:54:46.608Z,72.86
2019-01-29T14:56:20.424Z,73.00
2019-01-29T14:57:53.311Z,72.16
2019-01-29T14:59:26.630Z,72.59
2019-01-29T15:01:01.627Z,71.99
2019-01-29T15:02:35.521Z,71.59
2019-01-29T15:04:08.610Z,71.84
2019-01-29T15:05:42.489Z,72.63
2019-01-29T15:07:16.406Z,72.41
2019-01-29T15:08:49.352Z,72.92
2019-01-29T15:10:25.562Z,72.81
2019-01-29T15:11:59.539Z,72.63
2019-01-29T15:13:33.561Z,73.10
2019-01-29T15:15:07.767Z,72.94
2019-01-29T15:16:46.687Z,72.92
2019-01-29T15:18:23.771Z,72.81
2019-01-29T15:19:57.859Z,72.02
2019-01-29T15:21:37.737Z,72.71
2019-01-29T15:23:06.171Z,73.16
2019-01-29T15:24:40.073Z,73.10
2019-01-29T15:26:14.045Z,71.93
2019-01-29T15:27:47.848Z,72.87
2019-01-29T15:29:21.516Z,72.23
2019-01-29T15:30:55.506Z,72.55
2019-01-29T15:32:29.560Z,72.82
2019-01-29T15:34:03.324Z,72.21
2019-01-29T15:35:37.101Z,72.31
2019-01-29T15:37:11.267Z,72.49
2019-01-29T15:38:45.493Z,72.45
2019-01-29T15:40:19.496Z,71.59
2019-01-29T15:41:53.614Z,72.27
2019-01-29T15:43:27.325Z,72.82
2019-01-29T15:45:01.395Z,71.94
2019-01-29T15:46:35.389Z,71.36
2019-01-29T15:48:09.519Z,72.12
2019-01-29T15:49:43.313Z,72.69
2019-01-29T15:51:17.256Z,71.98
2019-01-29T15:52:51.110Z,72.01
2019-01-29T15:54:24.992Z,72.29
2019-01-29T15:55:58.750Z,72.55
2019-01-29T15:57:32.536Z,72.51
2019-01-29T15:59:07.675Z,71.76
2019-01-29T16:00:44.748Z,71.82
2019-01-29T16:02:18.367Z,71.35
2019-01-29T16:03:52.253Z,72.04
2019-01-29T16:05:27.381Z,71.71
2019-01-29T16:07:02.069Z,71.46
2019-01-29T16:08:34.948Z,71.91
2019-01-29T16:10:09.280Z,72.15
2019-01-29T16:11:43.410Z,72.38
2019-01-29T16:13:17.266Z,72.30
2019-01-29T16:14:51.586Z,70.73
2019-01-29T16:16:25.522Z,71.50
2019-01-29T16:17:59.318Z,72.51
2019-01-29T16:19:33.429Z,71.31
2019-01-29T16:21:07.404Z,72.53
2019-01-29T16:22:41.235Z,71.93
2019-01-29T16:24:15.154Z,71.76
2019-01-29T16:25:49.140Z,71.38
2019-01-29T16:27:23.166Z,72.02
2019-01-29T16:28:57.058Z,69.53
2019-01-29T16:30:34.747Z,71.14
2019-01-29T16:32:08.608Z,70.87
2019-01-29T16:33:42.418Z,72.08
2019-01-29T16:35:16.315Z,72.00
2019-01-29T16:36:50.592Z,72.42
2019-01-29T16:38:24.729Z,72.83
2019-01-29T16:39:58.552Z,72.89
2019-01-29T16:41:32.562Z,72.15
2019-01-29T16:43:06.566Z,72.41
2019-01-29T16:44:40.489Z,72.84
2019-01-29T16:46:13.525Z,72.70
2019-01-29T16:47:46.445Z,71.74
2019-01-29T16:49:19.410Z,71.80
2019-01-29T16:50:52.423Z,71.81
2019-01-29T16:52:26.151Z,71.97
2019-01-29T16:54:00.092Z,72.40
2019-01-29T16:55:36.256Z,72.51
2019-01-29T16:57:10.216Z,70.71
2019-01-29T16:58:44.279Z,71.86
2019-01-29T17:00:18.159Z,72.23
2019-01-29T17:01:52.167Z,72.10
2019-01-29T17:03:27.061Z,72.61
2019-01-29T17:05:00.684Z,71.66
2019-01-29T17:06:34.660Z,71.64
2019-01-29T17:08:08.808Z,72.35
2019-01-29T17:09:42.858Z,72.33
2019-01-29T17:11:16.884Z,71.72
2019-01-29T17:12:50.809Z,72.39
2019-01-29T17:14:24.096Z,72.69
2019-01-29T17:15:57.260Z,71.62
2019-01-29T17:17:31.401Z,71.80
2019-01-29T17:19:05.392Z,72.60
2019-01-29T17:20:42.398Z,72.21
2019-01-29T17:22:16.428Z,72.80
2019-01-29T17:23:50.444Z,72.38
2019-01-29T17:25:24.324Z,72.47
2019-01-29T17:26:57.319Z,72.28
2019-01-29T17:28:31.677Z,72.85
2019-01-29T17:30:06.794Z,72.35
2019-01-29T17:31:41.224Z,71.26
2019-01-29T17:33:15.163Z,72.05
2019-01-29T17:34:48.206Z,72.44
2019-01-29T17:36:21.164Z,72.33
2019-01-29T17:37:54.035Z,72.12
2019-01-29T17:39:28.887Z,72.67
2019-01-29T17:41:03.768Z,70.75
2019-01-29T17:42:37.691Z,71.66
2019-01-29T17:44:11.825Z,71.87
2019-01-29T17:45:48.788Z,72.22
2019-01-29T17:47:23.019Z,72.60
2019-01-29T17:48:57.116Z,72.16
2019-01-29T17:50:37.266Z,72.80
2019-01-29T17:52:11.233Z,71.89
2019-01-29T17:53:45.087Z,72.12
2019-01-29T17:55:18.973Z,71.59
2019-01-29T17:56:52.981Z,72.26
2019-01-29T17:58:28.266Z,71.27
2019-01-29T18:00:01.906Z,70.59
2019-01-29T18:01:36.448Z,72.16
2019-01-29T18:03:10.472Z,72.18
2019-01-29T18:04:44.247Z,71.68
2019-01-29T18:06:19.035Z,71.68
2019-01-29T18:07:53.256Z,71.97
2019-01-29T18:09:27.184Z,69.89
2019-01-29T18:11:00.923Z,71.54
2019-01-29T18:12:34.766Z,71.85
2019-01-29T18:14:09.676Z,71.90
2019-01-29T18:15:44.525Z,70.97
2019-01-29T18:17:18.423Z,71.62
2019-01-29T18:18:51.762Z,71.19
2019-01-29T18:20:26.303Z,71.26
2019-01-29T18:22:00.353Z,72.08
2019-01-29T18:23:34.349Z,72.24
2019-01-29T18:25:08.566Z,72.62
2019-01-29T18:26:42.291Z,71.58
2019-01-29T18:28:15.934Z,72.09
2019-01-29T18:29:50.067Z,71.85
2019-01-29T18:31:23.851Z,72.04
2019-01-29T18:32:58.161Z,71.49
2019-01-29T18:34:32.266Z,71.37
2019-01-29T18:36:06.461Z,72.32
2019-01-29T18:37:41.271Z,72.37
2019-01-29T18:39:16.083Z,72.04
2019-01-29T18:40:55.072Z,72.56
2019-01-29T18:42:29.044Z,71.83
2019-01-29T18:44:03.966Z,71.18
2019-01-29T18:45:38.056Z,72.12
2019-01-29T18:47:12.458Z,71.09
2019-01-29T18:48:46.361Z,69.88
2019-01-29T18:50:22.267Z,71.57
2019-01-29T18:51:56.150Z,71.77
2019-01-29T18:53:30.145Z,70.71
2019-01-29T18:55:03.126Z,71.65
2019-01-29T18:56:37.109Z,71.22
2019-01-29T18:58:12.688Z,72.06
2019-01-29T18:59:45.351Z,71.39
2019-01-29T19:01:19.247Z,71.66
2019-01-29T19:02:53.979Z,70.72
2019-01-29T19:04:28.186Z,72.04
2019-01-29T19:06:02.714Z,71.18
2019-01-29T19:07:37.152Z,72.10
2019-01-29T19:09:11.095Z,71.24
2019-01-29T19:10:44.886Z,70.73
2019-01-29T19:12:19.728Z,71.38
2019-01-29T19:13:53.538Z,72.11
2019-01-29T19:15:31.127Z,71.68
2019-01-29T19:17:04.937Z,71.37
2019-01-29T19:18:38.981Z,70.20
2019-01-29T19:20:12.937Z,70.84
2019-01-29T19:21:47.250Z,71.49
2019-01-29T19:23:21.152Z,71.95
2019-01-29T19:24:55.118Z,71.59
2019-01-29T19:26:30.181Z,71.04
2019-01-29T19:28:04.780Z,71.26
2019-01-29T19:29:39.520Z,71.71
2019-01-29T19:31:13.790Z,71.70
2019-01-29T19:32:49.543Z,71.87
2019-01-29T19:34:23.586Z,71.34
2019-01-29T19:35:57.593Z,71.98
2019-01-29T19:37:32.287Z,70.53
2019-01-29T19:39:07.243Z,70.98
2019-01-29T19:40:41.967Z,71.54
2019-01-29T19:42:16.044Z,71.41
2019-01-29T19:43:50.681Z,71.44
2019-01-29T19:45:26.810Z,71.08
2019-01-29T19:47:00.926Z,71.38
2019-01-29T19:48:35.032Z,70.78
2019-01-29T19:50:09.334Z,71.65
2019-01-29T19:51:44.348Z,71.33
2019-01-29T19:53:19.498Z,70.20
2019-01-29T19:54:53.529Z,70.77
2019-01-29T19:56:27.599Z,70.44
2019-01-29T19:58:08.736Z,70.21
2019-01-29T19:59:35.048Z,70.93
2019-01-29T20:01:09.214Z,70.83
2019-01-29T20:02:43.334Z,72.01
2019-01-29T20:04:17.555Z,71.17
2019-01-29T20:05:53.924Z,71.61
2019-01-29T20:07:28.994Z,71.02
2019-01-29T20:09:04.172Z,71.54
2019-01-29T20:10:39.041Z,71.70
2019-01-29T20:12:12.928Z,71.97
2019-01-29T20:13:47.683Z,70.94
2019-01-29T20:15:22.554Z,71.67
2019-01-29T20:16:57.483Z,70.79
2019-01-29T20:18:31.492Z,71.33
2019-01-29T20:20:06.314Z,70.27
2019-01-29T20:21:43.211Z,70.21
2019-01-29T20:23:17.263Z,71.39
2019-01-29T20:24:52.114Z,71.21
2019-01-29T20:26:25.974Z,71.58
2019-01-29T20:27:59.714Z,70.13
2019-01-29T20:29:34.826Z,70.31
2019-01-29T20:31:09.586Z,71.37
2019-01-29T20:32:52.884Z,71.35
2019-01-29T20:34:18.200Z,71.23
2019-01-29T20:35:54.812Z,71.44
2019-01-29T20:37:29.723Z,71.98
2019-01-29T20:39:03.552Z,71.41
2019-01-29T20:40:38.299Z,70.74
2019-01-29T20:42:11.975Z,69.95
2019-01-29T20:43:45.843Z,71.23
2019-01-29T20:45:19.571Z,71.59